Time;durP1;ratioP1;P1;durP2;ratioP2;P2;SDS_P1;SDS_P2;PMS_P1;PMS_P2;Temp;Humidity;BMP_temperature;BMP_pressure;BME280_temperature;BME280_humidity;BME280_pressure;Samples;Min_cycle;Max_cycle;Signal;HPM_P1;HPM_P2
2021/01/20 14:45:25;;;;;;;67.00;40.00;;;20.80;87.30;;;;;;5132517;27;20548;-77
2021/01/20 14:47:52;;;;;;;220.30;69.60;;;20.70;88.40;;;;;;5132131;28;20430;-76
2021/01/20 14:50:18;;;;;;;84.07;51.50;;;20.60;86.90;;;;;;5131945;28;20452;-78
2021/01/20 14:52:44;;;;;;;201.10;65.87;;;20.50;86.80;;;;;;5131721;28;20945;-77
2021/01/20 14:55:11;;;;;;;95.93;50.10;;;20.40;86.80;;;;;;5132542;28;20520;-80
2021/01/20 14:57:37;;;;;;;147.30;70.50;;;20.40;86.80;;;;;;5133059;27;20446;-78
2021/01/20 15:00:05;;;;;;;328.80;83.37;;;20.40;87.00;;;;;;5131958;28;20505;-78
2021/01/20 15:02:32;;;;;;;34.73;7.30;;;20.40;87.20;;;;;;5131645;28;20445;-79
2021/01/20 15:04:58;;;;;;;66.33;27.03;;;20.40;87.90;;;;;;5132718;28;20493;-78
2021/01/20 15:07:24;;;;;;;35.43;20.50;;;20.40;87.80;;;;;;5130706;27;20464;-78
2021/01/20 15:09:50;;;;;;;82.37;49.43;;;20.50;87.60;;;;;;5132329;27;20407;-77
2021/01/20 15:12:17;;;;;;;107.00;53.10;;;20.50;87.20;;;;;;5133101;28;20471;-78
2021/01/20 15:14:43;;;;;;;132.77;66.83;;;20.60;87.50;;;;;;5133178;28;20448;-78
2021/01/20 15:17:10;;;;;;;185.80;78.93;;;20.60;87.80;;;;;;5133880;28;20430;-78
2021/01/20 15:19:37;;;;;;;129.27;68.27;;;20.80;86.70;;;;;;5134011;28;20442;-78
2021/01/20 15:22:03;;;;;;;120.17;58.83;;;20.90;86.40;;;;;;5133467;27;20445;-79
2021/01/20 15:24:29;;;;;;;194.20;82.57;;;20.90;86.40;;;;;;5134297;28;20470;-78
2021/01/20 15:26:55;;;;;;;100.30;66.50;;;20.90;86.10;;;;;;5133975;27;20438;-78
2021/01/20 15:29:21;;;;;;;115.63;68.93;;;20.90;86.40;;;;;;5133979;28;20437;-78
2021/01/20 15:31:48;;;;;;;93.00;60.67;;;20.90;86.10;;;;;;5132901;28;20468;-79
2021/01/20 15:34:15;;;;;;;148.97;75.60;;;20.90;86.20;;;;;;5132905;27;20442;-79
2021/01/20 15:36:42;;;;;;;336.53;88.27;;;20.90;87.20;;;;;;5132884;27;20971;-78
2021/01/20 15:39:08;;;;;;;400.10;84.80;;;20.90;87.20;;;;;;5132516;28;20461;-79
2021/01/20 15:41:34;;;;;;;42.80;34.00;;;20.80;86.20;;;;;;5133015;28;21086;-78
2021/01/20 15:44:01;;;;;;;53.03;37.60;;;20.90;86.60;;;;;;5134064;28;20477;-78
2021/01/20 15:46:27;;;;;;;64.90;42.53;;;20.90;86.60;;;;;;5134249;28;20519;-77
2021/01/20 15:48:53;;;;;;;63.30;43.90;;;20.80;86.70;;;;;;5132470;28;20457;-78
2021/01/20 15:51:19;;;;;;;71.40;49.37;;;20.80;86.20;;;;;;5133890;27;20502;-78
2021/01/20 15:53:46;;;;;;;68.67;50.50;;;20.90;86.60;;;;;;5132207;28;20442;-78
2021/01/20 15:56:13;;;;;;;83.27;55.77;;;20.90;87.00;;;;;;5123572;28;20442;-78
2021/01/20 15:58:39;;;;;;;78.53;54.43;;;20.90;87.00;;;;;;5119688;28;20499;-78
2021/01/20 16:01:05;;;;;;;82.97;56.80;;;20.90;86.90;;;;;;5118992;28;20449;-79
2021/01/20 16:03:31;;;;;;;129.87;75.23;;;20.90;87.20;;;;;;5118874;28;20474;-78
2021/01/20 16:05:58;;;;;;;200.60;75.17;;;20.90;86.80;;;;;;5120487;28;20453;-78
2021/01/20 16:08:24;;;;;;;188.27;82.93;;;20.90;87.10;;;;;;5120786;28;20465;-78
2021/01/20 16:10:52;;;;;;;187.53;82.23;;;20.90;86.60;;;;;;5120360;28;20438;-78
2021/01/20 16:13:19;;;;;;;201.40;86.07;;;20.90;86.60;;;;;;5118505;28;20438;-79
2021/01/20 16:15:45;;;;;;;202.57;84.87;;;20.90;86.20;;;;;;5118921;28;20470;-79
2021/01/20 16:18:11;;;;;;;192.83;83.73;;;20.80;85.50;;;;;;5119622;28;20466;-80
2021/01/20 16:20:38;;;;;;;189.37;81.63;;;20.80;85.40;;;;;;5118372;28;20465;-79
2021/01/20 16:23:04;;;;;;;194.43;85.77;;;20.70;85.10;;;;;;5117776;28;20438;-77
2021/01/20 16:25:30;;;;;;;211.27;82.07;;;20.70;85.50;;;;;;5117261;28;20491;-78
2021/01/20 16:27:57;;;;;;;232.30;79.70;;;20.70;86.20;;;;;;5107674;28;20959;-77
2021/01/20 16:30:25;;;;;;;150.23;75.73;;;20.80;86.70;;;;;;5075179;28;20515;-77
2021/01/20 16:32:52;;;;;;;181.23;81.20;;;20.90;86.90;;;;;;5074673;28;20436;-77
2021/01/20 16:35:20;;;;;;;48.57;27.37;;;21.00;86.60;;;;;;5074614;28;20509;-76
2021/01/20 16:37:47;;;;;;;45.90;28.47;;;21.10;86.30;;;;;;5074570;28;20468;-78
2021/01/20 16:40:16;;;;;;;45.33;27.47;;;21.10;86.10;;;;;;5074904;28;20494;-78
2021/01/20 16:42:42;;;;;;;42.40;27.03;;;21.10;86.30;;;;;;5073499;28;20871;-77
2021/01/20 16:45:11;;;;;;;36.53;22.63;;;21.20;86.20;;;;;;5075814;28;20483;-77
2021/01/20 16:47:37;;;;;;;40.57;23.83;;;21.20;86.10;;;;;;5076294;28;20472;-79
2021/01/20 16:50:05;;;;;;;34.23;20.30;;;21.20;86.10;;;;;;5076249;28;20440;-79
2021/01/20 16:52:31;;;;;;;45.30;19.90;;;21.20;86.10;;;;;;5075835;28;20512;-79
2021/01/20 16:54:57;;;;;;;35.53;21.97;;;21.20;86.40;;;;;;5076560;28;20460;-80
2021/01/20 16:57:23;;;;;;;31.40;13.43;;;21.30;86.70;;;;;;5075679;28;20460;-80
2021/01/20 16:59:50;;;;;;;25.60;12.10;;;21.30;86.70;;;;;;5077007;28;20440;-78
2021/01/20 17:02:17;;;;;;;32.63;19.30;;;21.30;86.80;;;;;;5076182;28;20456;-78
2021/01/20 17:04:43;;;;;;;48.03;26.73;;;21.30;87.00;;;;;;5074948;28;20532;-78
2021/01/20 17:07:10;;;;;;;45.00;25.80;;;21.30;86.60;;;;;;5074222;28;20440;-77
2021/01/20 17:09:36;;;;;;;34.10;19.33;;;21.30;87.00;;;;;;5074524;28;20445;-78
2021/01/20 17:12:02;;;;;;;38.47;22.80;;;21.30;87.10;;;;;;5073318;28;20975;-78
2021/01/20 17:14:28;;;;;;;49.03;31.77;;;21.30;86.90;;;;;;5067736;28;20502;-79
2021/01/20 17:16:55;;;;;;;67.40;48.47;;;21.30;87.10;;;;;;5070260;28;20472;-78
2021/01/20 17:19:22;;;;;;;60.80;45.50;;;21.30;87.40;;;;;;5075979;28;20459;-79
2021/01/20 17:21:49;;;;;;;53.13;35.63;;;21.30;87.00;;;;;;5075085;28;20467;-79
2021/01/20 17:24:15;;;;;;;47.20;28.60;;;21.40;87.50;;;;;;5075980;28;20436;-79
2021/01/20 17:26:41;;;;;;;29.30;13.30;;;21.40;87.90;;;;;;5075762;28;20444;-80
2021/01/20 17:29:08;;;;;;;27.40;14.00;;;21.40;87.50;;;;;;5076081;28;20467;-80
2021/01/20 19:15:31;;;;;;;25.77;7.57;;;21.20;91.80;;;;;;5109651;27;20944;-76
2021/01/20 19:17:57;;;;;;;26.47;12.73;;;21.20;92.40;;;;;;5087158;27;73413;-74
2021/01/20 19:20:23;;;;;;;26.67;11.10;;;21.30;92.50;;;;;;5090144;28;20469;-77
2021/01/20 19:22:50;;;;;;;24.30;8.27;;;21.40;92.80;;;;;;5089766;28;20432;-77
2021/01/20 19:25:16;;;;;;;132.10;58.00;;;21.50;92.00;;;;;;5090156;28;20444;-78
2021/01/20 19:27:43;;;;;;;97.03;58.67;;;21.70;91.50;;;;;;5089749;28;20805;-78
2021/01/20 19:30:10;;;;;;;125.10;73.73;;;21.80;90.80;;;;;;5090283;28;20454;-78
2021/01/20 19:32:37;;;;;;;135.67;78.73;;;21.90;90.80;;;;;;5089120;28;20435;-77
2021/01/20 19:35:04;;;;;;;171.00;84.67;;;22.00;90.20;;;;;;5089170;28;20486;-76
2021/01/20 19:37:30;;;;;;;202.33;81.33;;;22.00;90.20;;;;;;5088907;28;20458;-77
2021/01/20 19:39:56;;;;;;;144.53;83.33;;;22.10;89.20;;;;;;5089073;28;20443;-77
2021/01/20 19:42:22;;;;;;;264.27;95.37;;;22.10;89.00;;;;;;5088660;28;20423;-77
2021/01/20 19:44:49;;;;;;;225.20;96.40;;;22.10;88.40;;;;;;5088852;28;21065;-76
2021/01/20 19:47:15;;;;;;;157.57;69.37;;;22.10;88.00;;;;;;5088944;28;20451;-77
2021/01/20 19:49:42;;;;;;;348.67;95.70;;;22.10;87.80;;;;;;5088555;28;20443;-78
2021/01/20 19:52:08;;;;;;;253.00;91.87;;;22.10;87.40;;;;;;5087968;28;20955;-77
2021/01/20 19:54:34;;;;;;;293.53;92.10;;;22.10;87.20;;;;;;5088950;28;20472;-77
2021/01/20 19:57:00;;;;;;;27.63;13.20;;;22.10;86.90;;;;;;5088705;28;20842;-77
2021/01/20 19:59:27;;;;;;;103.80;73.27;;;22.10;86.70;;;;;;5088494;28;20935;-76
2021/01/20 20:01:54;;;;;;;111.67;68.30;;;22.10;86.50;;;;;;5088025;28;20423;-77
2021/01/20 20:04:21;;;;;;;51.00;36.33;;;22.10;86.40;;;;;;5088704;28;20475;-77
2021/01/20 20:06:48;;;;;;;40.27;23.80;;;22.10;86.30;;;;;;5088387;28;20446;-77
2021/01/20 20:09:14;;;;;;;32.17;20.13;;;22.10;86.40;;;;;;5088820;28;20483;-76
2021/01/20 20:11:40;;;;;;;35.40;21.47;;;22.00;86.20;;;;;;5087503;28;21016;-77
2021/01/20 20:14:06;;;;;;;31.77;22.40;;;22.00;86.20;;;;;;5088067;28;20479;-77
2021/01/20 20:16:32;;;;;;;41.10;31.33;;;22.00;86.00;;;;;;5088258;28;20440;-77
2021/01/20 20:18:59;;;;;;;34.60;22.67;;;22.00;86.20;;;;;;5088380;28;20808;-76
2021/01/20 20:21:25;;;;;;;31.00;19.30;;;22.00;86.00;;;;;;5087451;28;20970;-77
2021/01/20 20:23:52;;;;;;;29.00;15.80;;;22.00;86.10;;;;;;5088094;28;20440;-77
2021/01/20 20:26:18;;;;;;;30.57;17.10;;;22.00;86.00;;;;;;5078074;28;20444;-77
2021/01/20 20:28:45;;;;;;;35.00;25.03;;;21.90;85.90;;;;;;5074764;28;20464;-78
2021/01/20 20:31:11;;;;;;;60.33;45.30;;;21.90;86.60;;;;;;5074931;28;20428;-78
2021/01/20 20:33:38;;;;;;;24.60;6.90;;;21.90;85.70;;;;;;5073954;28;20506;-78
2021/01/20 20:36:04;;;;;;;27.30;12.97;;;21.90;85.60;;;;;;5075222;28;20501;-78
2021/01/20 20:38:30;;;;;;;92.50;66.77;;;21.90;85.60;;;;;;5074744;28;20471;-78
2021/01/20 20:40:58;;;;;;;96.97;70.83;;;21.90;85.60;;;;;;5071933;22;20487;-78
2021/01/20 20:43:24;;;;;;;119.07;75.20;;;21.90;85.70;;;;;;5017097;28;20611;-78
2021/01/20 20:45:50;;;;;;;33.37;20.23;;;21.90;85.40;;;;;;5016618;28;20435;-77
2021/01/20 20:48:17;;;;;;;52.73;44.87;;;21.90;85.50;;;;;;5017418;28;20439;-76
2021/01/20 20:50:43;;;;;;;69.07;45.17;;;21.90;85.40;;;;;;5015047;28;20466;-76
2021/01/20 20:53:10;;;;;;;66.80;40.43;;;21.90;85.30;;;;;;5015074;28;20439;-78
2021/01/20 20:55:36;;;;;;;59.30;35.33;;;21.90;84.90;;;;;;5016565;28;20874;-77
2021/01/20 20:58:04;;;;;;;133.33;71.53;;;21.90;84.80;;;;;;5015857;28;20446;-76
2021/01/20 21:00:30;;;;;;;53.83;38.37;;;21.90;84.70;;;;;;5015759;28;20470;-76
2021/01/20 21:02:56;;;;;;;151.57;83.33;;;21.90;84.70;;;;;;5016099;28;20454;-79
2021/01/20 21:05:23;;;;;;;141.97;61.83;;;21.90;84.40;;;;;;5015820;28;20877;-76
2021/01/20 21:07:50;;;;;;;210.23;98.27;;;21.90;84.30;;;;;;5015796;28;20446;-76
2021/01/20 21:10:16;;;;;;;127.60;47.63;;;21.90;84.10;;;;;;5016092;28;20465;-74
2021/01/20 21:12:44;;;;;;;76.07;51.63;;;21.80;84.20;;;;;;5014952;28;20442;-76
2021/01/20 21:15:11;;;;;;;251.43;89.47;;;21.90;84.00;;;;;;5017531;28;20469;-76
2021/01/20 21:17:38;;;;;;;86.60;35.10;;;21.90;84.20;;;;;;5017816;28;20443;-78
2021/01/20 21:20:05;;;;;;;27.47;9.23;;;21.90;84.10;;;;;;5016015;28;20463;-77
2021/01/20 21:22:32;;;;;;;25.13;7.63;;;21.80;84.20;;;;;;5014072;28;20456;-77
2021/01/20 21:24:58;;;;;;;28.87;10.70;;;21.90;84.10;;;;;;5015396;28;20443;-76
2021/01/20 21:27:24;;;;;;;37.10;20.40;;;21.90;84.10;;;;;;5016016;28;20455;-77
2021/01/20 21:29:50;;;;;;;125.13;60.03;;;21.90;84.10;;;;;;5015251;28;20463;-76
2021/01/20 21:32:17;;;;;;;129.27;78.93;;;21.90;84.20;;;;;;5015329;28;20449;-78
2021/01/20 21:34:44;;;;;;;36.50;22.93;;;21.90;84.10;;;;;;5015983;28;20478;-78
2021/01/20 21:37:10;;;;;;;42.63;31.23;;;21.90;84.10;;;;;;5014753;28;20448;-78
2021/01/20 21:39:36;;;;;;;82.20;42.27;;;21.90;84.00;;;;;;5013938;28;20457;-78
2021/01/20 21:42:02;;;;;;;177.40;84.50;;;21.90;84.10;;;;;;5013113;28;20806;-77
2021/01/20 21:44:29;;;;;;;57.27;43.63;;;21.90;84.40;;;;;;5014362;28;20451;-76
2021/01/20 21:46:55;;;;;;;192.90;90.10;;;21.90;84.90;;;;;;5016234;28;20450;-78
2021/01/20 21:49:22;;;;;;;235.10;84.70;;;21.90;84.10;;;;;;5017076;28;20443;-78
2021/01/20 21:51:48;;;;;;;39.00;29.90;;;21.90;84.10;;;;;;5014113;28;20467;-78
2021/01/20 21:54:14;;;;;;;54.00;43.40;;;21.90;84.10;;;;;;5016933;28;20843;-78
2021/01/20 21:56:41;;;;;;;68.40;50.37;;;21.90;83.90;;;;;;5014253;28;20457;-78
2021/01/20 21:59:07;;;;;;;207.90;92.27;;;21.80;83.90;;;;;;5015555;28;20454;-79
2021/01/20 22:01:33;;;;;;;193.87;85.40;;;21.80;83.80;;;;;;5016428;28;20785;-78
2021/01/20 22:03:59;;;;;;;221.17;63.90;;;21.80;83.80;;;;;;5013178;28;20443;-76
2021/01/20 22:06:26;;;;;;;208.43;75.83;;;21.90;84.00;;;;;;5013127;28;20423;-76
2021/01/20 22:08:52;;;;;;;85.43;61.27;;;22.00;83.70;;;;;;5012803;28;20454;-77
2021/01/20 22:11:19;;;;;;;220.87;90.17;;;22.10;83.10;;;;;;5013070;28;20470;-75
